Time;durP1;ratioP1;P1;durP2;ratioP2;P2;SDS_P1;SDS_P2;PMS_P1;PMS_P2;Temp;Humidity;BMP_temperature;BMP_pressure;BME280_temperature;BME280_humidity;BME280_pressure;Samples;Min_cycle;Max_cycle;Signal;HPM_P1;HPM_P2
2021/11/10 00:01:38;;;;;;;13.18;6.75;;;6.80;99.90;;;;;;5073721;28;20477;-67
2021/11/10 00:04:04;;;;;;;12.60;6.72;;;6.80;99.90;;;;;;5073997;28;20021;-67
2021/11/10 00:06:30;;;;;;;10.35;6.75;;;6.70;99.90;;;;;;5055608;28;20411;-67
2021/11/10 00:08:55;;;;;;;12.18;7.55;;;6.70;99.90;;;;;;5073803;28;20029;-69
2021/11/10 00:11:21;;;;;;;10.55;7.35;;;6.70;99.90;;;;;;5073414;28;20411;-67
2021/11/10 00:13:47;;;;;;;12.35;6.95;;;6.60;99.90;;;;;;5073724;28;20075;-68
2021/11/10 00:16:12;;;;;;;12.45;8.13;;;6.60;99.90;;;;;;5073511;28;20059;-67
2021/11/10 00:18:38;;;;;;;20.63;9.70;;;6.50;99.90;;;;;;5073179;28;20086;-67
2021/11/10 00:21:04;;;;;;;19.83;8.57;;;6.60;99.90;;;;;;5073776;28;20370;-67
2021/11/10 00:23:30;;;;;;;11.68;6.90;;;6.50;99.90;;;;;;5055285;28;20036;-67
2021/11/10 00:25:56;;;;;;;15.40;6.45;;;6.50;99.90;;;;;;5055878;28;20064;-67
2021/11/10 00:28:21;;;;;;;12.27;6.00;;;6.50;99.90;;;;;;5054878;28;20021;-67
2021/11/10 00:30:47;;;;;;;15.93;6.43;;;6.60;99.90;;;;;;5073167;28;20117;-67
2021/11/10 00:33:12;;;;;;;11.82;5.97;;;6.50;99.90;;;;;;5039024;28;20037;-68
2021/11/10 00:35:38;;;;;;;10.30;6.35;;;6.50;99.90;;;;;;5072682;28;20033;-67
2021/11/10 00:38:04;;;;;;;9.73;5.70;;;6.50;99.90;;;;;;5055374;28;20028;-67
2021/11/10 00:40:30;;;;;;;13.32;5.47;;;6.40;99.90;;;;;;5072890;28;20138;-67
2021/11/10 00:42:55;;;;;;;10.32;5.25;;;6.40;99.90;;;;;;5055015;28;20032;-67
2021/11/10 00:45:21;;;;;;;11.98;6.20;;;6.40;99.90;;;;;;5072871;28;20025;-69
2021/11/10 00:47:47;;;;;;;9.63;5.13;;;6.40;99.90;;;;;;5055191;28;20035;-68
2021/11/10 00:50:13;;;;;;;9.68;5.60;;;6.50;99.90;;;;;;5073223;28;20037;-68
2021/11/10 00:52:39;;;;;;;9.98;5.60;;;6.50;99.90;;;;;;5072352;28;20033;-66
2021/11/10 00:55:05;;;;;;;13.10;6.15;;;6.40;99.90;;;;;;5073145;28;20032;-67
2021/11/10 00:57:31;;;;;;;7.18;5.10;;;6.30;99.90;;;;;;5072560;28;20046;-68
2021/11/10 00:59:57;;;;;;;7.53;5.75;;;6.40;99.90;;;;;;5071729;28;20028;-67
2021/11/10 01:02:22;;;;;;;8.45;5.03;;;6.40;99.90;;;;;;5071151;28;20074;-67
2021/11/10 01:04:48;;;;;;;8.90;5.10;;;6.40;99.90;;;;;;5072685;28;20103;-67
2021/11/10 01:07:14;;;;;;;11.93;5.63;;;6.40;99.90;;;;;;5073022;28;20029;-67
2021/11/10 01:09:41;;;;;;;8.48;5.32;;;6.30;99.90;;;;;;5071986;28;20241;-67
2021/11/10 01:12:09;;;;;;;7.30;4.75;;;6.30;99.90;;;;;;5072701;28;20056;-68
2021/11/10 01:14:35;;;;;;;8.43;5.32;;;6.20;99.90;;;;;;5072095;28;20035;-67
2021/11/10 01:17:01;;;;;;;6.93;4.80;;;6.20;99.90;;;;;;5072845;28;20072;-68
2021/11/10 01:19:26;;;;;;;8.27;5.22;;;6.20;99.90;;;;;;5070390;28;20060;-67
2021/11/10 01:21:52;;;;;;;8.50;5.13;;;6.10;99.90;;;;;;5054691;28;20032;-67
2021/11/10 01:24:18;;;;;;;23.45;6.47;;;6.00;99.90;;;;;;5054649;28;20028;-67
2021/11/10 01:26:44;;;;;;;8.07;4.93;;;6.10;99.90;;;;;;5053616;28;20021;-67
2021/11/10 01:29:10;;;;;;;13.13;5.78;;;6.00;99.90;;;;;;5054547;28;20151;-67
2021/11/10 01:31:36;;;;;;;9.02;5.55;;;5.90;99.90;;;;;;5071392;28;20025;-67
2021/11/10 01:34:07;;;;;;;10.60;5.18;;;6.10;99.90;;;;;;5054204;28;20028;-67
2021/11/10 01:36:33;;;;;;;9.38;5.53;;;6.00;99.90;;;;;;5053774;28;20128;-67
2021/11/10 01:38:59;;;;;;;9.30;5.68;;;5.90;99.90;;;;;;5072171;28;20032;-67
2021/11/10 01:41:25;;;;;;;8.23;5.25;;;5.90;99.90;;;;;;5070347;28;20028;-67
2021/11/10 01:43:50;;;;;;;8.85;4.93;;;5.90;99.90;;;;;;5072299;28;20489;-66
2021/11/10 01:46:16;;;;;;;8.85;5.65;;;5.90;99.90;;;;;;5072035;28;20032;-68
2021/11/10 01:48:42;;;;;;;8.30;5.68;;;5.90;99.90;;;;;;5071625;28;20296;-68
2021/11/10 01:51:08;;;;;;;11.05;6.10;;;5.90;99.90;;;;;;5071983;28;20465;-68
2021/11/10 01:53:34;;;;;;;9.93;5.85;;;5.90;99.90;;;;;;5071448;28;20087;-68
2021/11/10 01:56:01;;;;;;;10.20;4.60;;;5.90;99.90;;;;;;5072024;28;20021;-67
2021/11/10 01:58:28;;;;;;;11.85;6.85;;;5.90;99.90;;;;;;5071209;28;20025;-67
2021/11/10 02:00:54;;;;;;;7.90;5.45;;;6.00;99.90;;;;;;5071835;28;20116;-68
2021/11/10 02:03:20;;;;;;;10.48;5.38;;;5.90;99.90;;;;;;5071966;28;20029;-66
2021/11/10 02:05:47;;;;;;;11.52;6.30;;;5.90;99.90;;;;;;5071185;28;20035;-67
2021/11/10 02:08:13;;;;;;;10.57;5.88;;;6.00;99.90;;;;;;5071642;28;20047;-67
2021/11/10 02:10:40;;;;;;;11.02;5.40;;;5.90;99.90;;;;;;5070891;28;20032;-68
2021/11/10 02:13:07;;;;;;;10.30;5.60;;;6.00;99.90;;;;;;5071530;28;20043;-67
2021/11/10 02:15:34;;;;;;;8.82;5.70;;;5.90;99.90;;;;;;5070802;28;20469;-67
2021/11/10 02:18:02;;;;;;;9.50;5.35;;;5.90;99.90;;;;;;5066736;28;20056;-67
2021/11/10 02:20:35;;;;;;;8.80;6.05;;;5.80;99.90;;;;;;5065825;28;20091;-67
2021/11/10 02:23:04;;;;;;;10.77;5.00;;;5.90;99.90;;;;;;5051577;28;20051;-66
2021/11/10 02:25:29;;;;;;;7.55;5.50;;;5.80;99.90;;;;;;5049643;28;20029;-66
2021/11/10 02:27:57;;;;;;;9.48;5.38;;;5.80;99.90;;;;;;5050201;28;20085;-68
2021/11/10 02:30:23;;;;;;;10.60;5.20;;;5.80;99.90;;;;;;5051487;28;20025;-68
2021/11/10 02:32:58;;;;;;;12.20;5.85;;;5.80;99.90;;;;;;5049497;28;20115;-67
2021/11/10 02:35:26;;;;;;;7.20;4.78;;;5.60;99.90;;;;;;5051816;28;20037;-66
2021/11/10 02:38:13;;;;;;;11.45;6.07;;;5.70;99.90;;;;;;5049994;28;20083;-67
2021/11/10 02:40:39;;;;;;;10.30;6.55;;;5.80;99.90;;;;;;5050731;28;20035;-67
2021/11/10 02:43:05;;;;;;;8.45;5.97;;;5.80;99.90;;;;;;5051444;28;20377;-67
2021/11/10 02:45:30;;;;;;;10.15;6.35;;;5.80;99.90;;;;;;5049255;28;20043;-67
2021/11/10 02:47:57;;;;;;;8.82;6.53;;;5.80;99.90;;;;;;5049692;28;20123;-67
2021/11/10 02:50:29;;;;;;;9.52;5.53;;;5.70;99.90;;;;;;5051113;28;20493;-67
2021/11/10 02:52:54;;;;;;;12.20;5.85;;;5.70;99.90;;;;;;5051611;28;20404;-67
2021/11/10 02:55:20;;;;;;;8.13;5.57;;;5.70;99.90;;;;;;5051292;28;20108;-68
2021/11/10 02:57:45;;;;;;;11.52;5.75;;;5.60;99.90;;;;;;5050547;28;20087;-68
2021/11/10 03:00:13;;;;;;;7.32;5.25;;;5.70;99.90;;;;;;5051074;28;20035;-67
2021/11/10 03:02:39;;;;;;;9.85;6.03;;;5.80;99.90;;;;;;5049312;28;20059;-67
2021/11/10 03:05:05;;;;;;;8.43;6.45;;;5.70;99.90;;;;;;5050772;28;20439;-67
2021/11/10 03:07:32;;;;;;;7.95;5.55;;;5.70;99.90;;;;;;5065902;28;20025;-67
2021/11/10 03:09:58;;;;;;;10.43;5.95;;;5.60;99.90;;;;;;5066554;28;20379;-67
2021/11/10 03:12:24;;;;;;;9.85;5.50;;;5.50;99.90;;;;;;5049748;28;20025;-67
2021/11/10 03:14:49;;;;;;;11.32;5.72;;;5.60;99.90;;;;;;5050400;28;20033;-67
2021/11/10 03:17:18;;;;;;;11.60;5.78;;;5.50;99.90;;;;;;5064347;28;20051;-67
2021/11/10 03:19:44;;;;;;;9.52;5.78;;;5.50;99.90;;;;;;5070333;28;20029;-68
2021/11/10 03:22:13;;;;;;;9.88;5.55;;;5.50;99.90;;;;;;5071059;28;20039;-67
2021/11/10 03:24:39;;;;;;;7.50;5.68;;;5.30;99.90;;;;;;5070282;28;20028;-67
2021/11/10 03:27:06;;;;;;;9.27;5.93;;;5.40;99.90;;;;;;5070895;28;20035;-68
2021/11/10 03:29:33;;;;;;;7.30;5.22;;;5.30;99.90;;;;;;5070015;28;20028;-68
2021/11/10 03:31:58;;;;;;;8.52;5.35;;;5.40;99.90;;;;;;5071395;28;20046;-67
2021/11/10 03:34:24;;;;;;;8.75;6.38;;;5.20;99.90;;;;;;5056595;28;20111;-67
2021/11/10 03:36:50;;;;;;;11.95;6.00;;;5.30;99.90;;;;;;5072493;28;20021;-70
2021/11/10 03:39:17;;;;;;;12.57;5.90;;;5.30;99.90;;;;;;5066104;28;20556;-68
2021/11/10 03:41:43;;;;;;;7.90;5.50;;;5.30;99.90;;;;;;5077066;28;20060;-67
2021/11/10 03:44:09;;;;;;;8.43;5.15;;;5.30;99.90;;;;;;5077505;28;20077;-68
2021/11/10 03:46:37;;;;;;;10.27;6.38;;;5.30;99.90;;;;;;5094192;28;20032;-68
2021/11/10 03:49:03;;;;;;;9.23;5.45;;;5.30;99.90;;;;;;5076680;28;20525;-66
2021/11/10 03:51:29;;;;;;;8.90;5.22;;;5.30;99.90;;;;;;5094856;28;20055;-67
2021/11/10 03:53:56;;;;;;;8.15;5.18;;;5.30;99.90;;;;;;5094703;28;20020;-67
2021/11/10 03:56:23;;;;;;;7.03;4.75;;;5.30;99.90;;;;;;5094487;28;20035;-66
2021/11/10 03:58:48;;;;;;;7.03;5.03;;;5.30;99.90;;;;;;5093690;28;20051;-68
2021/11/10 04:01:14;;;;;;;8.05;4.93;;;5.20;99.90;;;;;;5076237;28;20453;-67
2021/11/10 04:03:40;;;;;;;9.43;4.95;;;5.20;99.90;;;;;;5093817;28;20454;-66
2021/11/10 04:06:07;;;;;;;6.25;4.70;;;5.20;99.90;;;;;;5076350;28;20047;-67
2021/11/10 04:08:32;;;;;;;9.40;4.97;;;5.20;99.90;;;;;;5075857;28;20035;-68
2021/11/10 04:11:00;;;;;;;8.35;5.38;;;5.20;99.90;;;;;;5075942;28;20110;-67
2021/11/10 04:13:30;;;;;;;8.45;4.70;;;5.20;99.90;;;;;;5076032;28;20120;-67
2021/11/10 04:15:57;;;;;;;9.85;5.88;;;5.20;99.90;;;;;;5075363;28;20056;-66
2021/11/10 04:18:23;;;;;;;10.75;5.15;;;5.20;99.90;;;;;;5093988;28;20086;-66
2021/11/10 04:20:49;;;;;;;8.60;4.50;;;5.20;99.90;;;;;;5093358;28;20472;-66
2021/11/10 04:23:15;;;;;;;9.27;5.13;;;5.10;99.90;;;;;;5075639;28;20419;-66
2021/11/10 04:25:40;;;;;;;9.02;5.38;;;5.20;99.90;;;;;;5093431;28;20103;-67
2021/11/10 04:28:07;;;;;;;13.82;6.05;;;5.10;99.90;;;;;;5075705;28;20075;-66
2021/11/10 04:30:33;;;;;;;10.50;5.57;;;5.20;99.90;;;;;;5074735;28;20036;-71
2021/11/10 04:32:59;;;;;;;11.95;4.72;;;5.20;99.90;;;;;;5093657;28;20020;-67
2021/11/10 04:35:25;;;;;;;10.68;4.88;;;5.20;99.90;;;;;;5075117;28;20025;-67
2021/11/10 04:37:50;;;;;;;9.27;5.38;;;5.10;99.90;;;;;;5074576;28;20020;-67
2021/11/10 04:40:16;;;;;;;9.50;5.70;;;5.00;99.90;;;;;;5093127;28;20031;-67
2021/11/10 04:42:42;;;;;;;13.43;6.20;;;5.10;99.90;;;;;;5092766;28;20024;-66
2021/11/10 04:45:16;;;;;;;7.05;4.75;;;5.10;99.90;;;;;;5092882;28;20070;-67
2021/11/10 04:47:42;;;;;;;10.05;6.25;;;5.00;99.90;;;;;;5093021;28;20492;-68
2021/11/10 04:50:09;;;;;;;8.32;5.10;;;4.90;99.90;;;;;;5092830;28;20103;-67
2021/11/10 04:52:35;;;;;;;8.82;5.57;;;5.10;99.90;;;;;;5092628;28;20028;-68
2021/11/10 04:55:02;;;;;;;7.43;4.78;;;5.00;99.90;;;;;;5092980;28;20062;-68
2021/11/10 04:57:28;;;;;;;8.95;5.72;;;4.90;99.90;;;;;;5074943;28;20024;-67
2021/11/10 04:59:54;;;;;;;7.47;4.82;;;5.00;99.90;;;;;;5092190;28;20264;-67
2021/11/10 05:02:25;;;;;;;7.28;5.18;;;5.00;99.90;;;;;;5092586;28;20028;-67
2021/11/10 05:04:53;;;;;;;10.80;5.60;;;4.80;99.90;;;;;;5073726;28;20028;-67
2021/11/10 05:07:20;;;;;;;10.55;5.53;;;4.90;99.90;;;;;;5092821;28;20109;-67
2021/11/10 05:09:46;;;;;;;15.85;5.55;;;5.00;99.90;;;;;;5092068;28;20028;-67
2021/11/10 05:12:12;;;;;;;8.85;5.80;;;4.80;99.90;;;;;;5091816;28;20130;-68
2021/11/10 05:14:38;;;;;;;8.35;6.07;;;4.80;99.90;;;;;;5092356;28;20470;-66
2021/11/10 05:17:04;;;;;;;14.00;4.97;;;4.80;99.90;;;;;;5070818;28;20048;-66
2021/11/10 05:19:30;;;;;;;7.53;5.68;;;4.90;99.90;;;;;;5072118;28;20035;-66
2021/11/10 05:21:56;;;;;;;11.18;5.75;;;4.80;99.90;;;;;;5070471;28;20405;-66
2021/11/10 05:24:22;;;;;;;8.77;5.15;;;4.90;99.90;;;;;;5072046;28;20036;-66
2021/11/10 05:26:49;;;;;;;9.90;5.68;;;4.80;99.90;;;;;;5070292;28;20036;-65
2021/11/10 05:29:14;;;;;;;11.50;5.40;;;4.90;99.90;;;;;;5072116;28;20103;-67
2021/11/10 05:31:40;;;;;;;14.07;6.07;;;4.90;99.90;;;;;;5071385;28;20113;-67
2021/11/10 05:34:06;;;;;;;10.18;5.38;;;5.00;99.90;;;;;;5070979;28;20141;-67
2021/11/10 05:36:31;;;;;;;15.98;6.20;;;5.10;99.90;;;;;;5072241;28;20028;-66
2021/11/10 05:38:57;;;;;;;12.10;5.78;;;5.20;99.90;;;;;;5071514;28;20043;-67
2021/11/10 05:41:23;;;;;;;9.63;5.93;;;5.00;99.90;;;;;;5070690;28;20029;-67
2021/11/10 05:43:48;;;;;;;11.70;5.75;;;5.00;99.90;;;;;;5069915;28;20032;-67
2021/11/10 05:46:14;;;;;;;10.82;5.90;;;5.10;99.90;;;;;;5070287;28;20119;-69
2021/11/10 05:48:40;;;;;;;10.90;6.38;;;5.00;99.90;;;;;;5069895;28;20028;-68
2021/11/10 05:51:06;;;;;;;10.50;5.22;;;4.90;99.90;;;;;;5070422;28;20435;-68
2021/11/10 05:53:33;;;;;;;11.32;5.88;;;4.90;99.90;;;;;;5071476;28;20017;-68
2021/11/10 05:56:00;;;;;;;11.52;6.13;;;4.90;99.90;;;;;;5070235;28;20036;-67
2021/11/10 05:58:28;;;;;;;9.38;5.32;;;4.80;99.90;;;;;;5071652;28;20047;-67
2021/11/10 06:00:57;;;;;;;9.02;6.38;;;4.80;99.90;;;;;;5069607;28;20075;-67
2021/11/10 06:03:23;;;;;;;17.15;6.25;;;4.80;99.90;;;;;;5070171;28;20374;-67
2021/11/10 06:05:55;;;;;;;17.15;5.95;;;4.80;99.90;;;;;;5069589;28;20024;-68
2021/11/10 06:08:21;;;;;;;16.55;6.20;;;4.90;99.90;;;;;;5070053;28;20029;-66
2021/11/10 06:10:47;;;;;;;14.50;5.72;;;5.00;99.90;;;;;;5070922;28;20024;-67
2021/11/10 06:13:13;;;;;;;12.77;5.05;;;4.90;99.90;;;;;;5069658;28;20438;-68
2021/11/10 06:15:39;;;;;;;14.43;6.03;;;4.90;99.90;;;;;;5070913;28;20104;-75
2021/11/10 06:18:07;;;;;;;11.95;5.38;;;4.90;99.90;;;;;;5091181;28;20055;-68
2021/11/10 06:20:35;;;;;;;9.20;5.30;;;4.90;99.90;;;;;;5073180;28;20119;-69
2021/11/10 06:23:01;;;;;;;12.32;6.03;;;4.80;99.90;;;;;;5091124;28;20358;-67
2021/11/10 06:25:27;;;;;;;10.02;5.47;;;4.80;99.90;;;;;;5073325;28;20031;-68
2021/11/10 06:27:52;;;;;;;10.35;6.32;;;4.80;99.90;;;;;;5090679;28;20027;-67
2021/11/10 06:30:18;;;;;;;12.48;5.60;;;4.70;99.90;;;;;;5091501;28;20028;-67
2021/11/10 06:32:45;;;;;;;10.55;5.85;;;4.80;99.90;;;;;;5090457;28;20108;-66
2021/11/10 06:35:12;;;;;;;12.02;5.20;;;4.70;99.90;;;;;;5073159;28;20040;-66
2021/11/10 06:37:38;;;;;;;9.82;6.30;;;4.70;99.90;;;;;;5091111;28;20426;-67
2021/11/10 06:40:05;;;;;;;7.00;4.85;;;4.70;99.90;;;;;;5072440;28;20035;-67
2021/11/10 06:42:31;;;;;;;10.73;5.65;;;4.70;99.90;;;;;;5072666;28;20067;-68
2021/11/10 06:44:57;;;;;;;6.97;5.00;;;4.60;99.90;;;;;;5072433;28;20024;-67
2021/11/10 06:47:27;;;;;;;9.60;5.45;;;4.70;99.90;;;;;;5072914;28;20115;-68
2021/11/10 06:49:53;;;;;;;12.57;5.30;;;4.80;99.90;;;;;;5090282;28;20058;-66
2021/11/10 06:52:19;;;;;;;9.30;4.85;;;4.80;99.90;;;;;;5090582;28;20484;-67
2021/11/10 06:54:45;;;;;;;12.73;5.20;;;4.80;99.90;;;;;;5090479;28;20028;-68
2021/11/10 06:57:10;;;;;;;7.35;5.43;;;4.90;99.90;;;;;;5072762;28;20064;-68
2021/11/10 06:59:36;;;;;;;11.40;5.53;;;5.00;99.90;;;;;;5091444;28;20498;-69
2021/11/10 07:02:02;;;;;;;9.80;5.40;;;4.90;99.90;;;;;;5089951;28;20036;-68
2021/11/10 07:04:28;;;;;;;11.68;5.80;;;4.90;99.90;;;;;;5072383;28;20058;-67
2021/11/10 07:06:53;;;;;;;10.98;5.50;;;5.00;99.90;;;;;;5090832;28;20180;-67
2021/11/10 07:09:19;;;;;;;14.73;5.63;;;5.20;99.90;;;;;;5094727;28;20066;-67
2021/11/10 07:11:45;;;;;;;11.60;5.65;;;5.40;99.90;;;;;;5094016;28;20039;-67
2021/11/10 07:14:11;;;;;;;9.75;5.35;;;5.40;99.90;;;;;;5076009;28;20317;-67
2021/11/10 07:16:37;;;;;;;12.30;6.10;;;5.70;99.90;;;;;;5072675;28;20550;-66
2021/11/10 07:19:04;;;;;;;19.17;6.10;;;5.80;99.90;;;;;;5071856;28;20041;-67
2021/11/10 07:21:29;;;;;;;11.70;5.75;;;5.90;99.90;;;;;;5074083;28;20448;-67
2021/11/10 07:23:56;;;;;;;13.30;5.68;;;6.10;99.90;;;;;;5073595;28;20052;-67
2021/11/10 07:26:22;;;;;;;8.40;5.22;;;6.30;99.90;;;;;;5074123;28;20102;-66
2021/11/10 07:28:48;;;;;;;9.82;5.10;;;6.40;99.90;;;;;;5073147;28;20032;-66
2021/11/10 07:31:14;;;;;;;16.95;5.32;;;6.90;99.90;;;;;;5072188;28;20620;-67
2021/11/10 07:33:39;;;;;;;8.77;5.07;;;7.30;99.90;;;;;;5072522;28;20119;-67
2021/11/10 07:36:06;;;;;;;11.82;5.65;;;7.80;99.90;;;;;;5071573;28;20162;-66
2021/11/10 07:38:32;;;;;;;10.90;4.97;;;8.50;99.90;;;;;;5073622;28;20403;-68
2021/11/10 07:40:59;;;;;;;8.07;4.70;;;9.00;99.90;;;;;;5071894;28;20131;-68
2021/11/10 07:43:25;;;;;;;6.80;4.22;;;9.40;99.90;;;;;;5073962;28;20346;-67
2021/11/10 07:45:59;;;;;;;9.20;4.47;;;9.50;99.90;;;;;;5071612;28;20359;-67
2021/11/10 07:48:25;;;;;;;12.25;5.32;;;9.80;99.90;;;;;;5071981;28;20033;-67
2021/11/10 07:50:50;;;;;;;6.53;4.10;;;10.00;99.90;;;;;;5072587;28;20454;-67
2021/11/10 07:53:16;;;;;;;9.75;4.90;;;10.30;99.90;;;;;;5073534;28;20078;-67
2021/11/10 07:55:42;;;;;;;8.98;4.80;;;10.40;99.90;;;;;;5073090;28;20052;-67
2021/11/10 07:58:08;;;;;;;9.70;4.95;;;10.60;99.90;;;;;;5072457;28;20407;-68
2021/11/10 08:00:36;;;;;;;7.30;4.80;;;10.90;99.90;;;;;;5071669;28;20070;-68
2021/11/10 08:03:02;;;;;;;19.88;7.15;;;11.00;99.90;;;;;;5072664;28;20490;-66
2021/11/10 08:05:28;;;;;;;8.00;4.75;;;11.20;99.90;;;;;;5073374;28;20056;-66
2021/11/10 08:07:54;;;;;;;6.95;4.53;;;11.60;99.90;;;;;;5073287;28;20087;-67
2021/11/10 08:10:19;;;;;;;5.93;4.10;;;11.60;99.50;;;;;;5061620;28;20404;-68
2021/11/10 08:12:47;;;;;;;8.43;3.50;;;11.20;99.50;;;;;;5056202;28;20029;-71
2021/11/10 08:15:15;;;;;;;8.07;4.68;;;11.10;99.80;;;;;;5048054;28;20033;-67
2021/11/10 08:17:41;;;;;;;6.68;3.97;;;10.80;99.90;;;;;;5077740;28;20061;-68
2021/11/10 08:20:10;;;;;;;5.75;4.13;;;10.90;99.90;;;;;;5077669;28;20032;-69
2021/11/10 08:22:36;;;;;;;9.00;4.65;;;10.80;99.90;;;;;;5081840;28;20039;-69
2021/11/10 08:25:04;;;;;;;6.80;5.10;;;10.50;99.90;;;;;;5069949;28;20139;-68
2021/11/10 08:27:30;;;;;;;7.20;5.10;;;10.20;99.90;;;;;;5082481;28;20055;-68
2021/11/10 08:29:56;;;;;;;6.97;4.72;;;9.90;99.90;;;;;;5072958;28;20375;-68
2021/11/10 08:32:21;;;;;;;11.23;4.93;;;10.00;99.90;;;;;;5064268;28;20122;-67
2021/11/10 08:34:47;;;;;;;9.00;5.03;;;10.50;99.90;;;;;;5081345;28;20032;-68
2021/11/10 08:37:13;;;;;;;12.40;5.22;;;11.10;99.90;;;;;;5074445;28;20129;-67
2021/11/10 08:39:39;;;;;;;9.68;4.95;;;11.60;99.30;;;;;;5073702;28;20037;-67
2021/11/10 08:42:08;;;;;;;11.80;5.68;;;11.50;99.10;;;;;;5081079;28;20032;-68
2021/11/10 08:44:36;;;;;;;13.07;5.15;;;11.60;99.10;;;;;;5086066;28;20043;-69
2021/11/10 08:47:04;;;;;;;6.55;5.18;;;11.50;98.50;;;;;;5081598;28;20111;-67
2021/11/10 08:49:31;;;;;;;11.05;5.95;;;11.10;99.70;;;;;;5083525;28;20112;-67
2021/11/10 08:51:57;;;;;;;11.32;5.25;;;11.70;99.10;;;;;;5076939;28;20032;-67
2021/11/10 08:54:25;;;;;;;16.42;5.63;;;11.80;98.50;;;;;;5078994;28;20418;-68
2021/11/10 08:56:55;;;;;;;13.63;5.45;;;12.00;98.10;;;;;;5080160;28;20074;-68
2021/11/10 08:59:22;;;;;;;10.52;5.47;;;12.40;97.80;;;;;;5065730;28;20082;-68
2021/11/10 09:01:53;;;;;;;10.85;6.15;;;12.60;97.60;;;;;;5065369;28;20466;-69
2021/11/10 09:04:20;;;;;;;10.30;5.65;;;12.80;96.70;;;;;;5074703;28;20024;-69
2021/11/10 09:06:47;;;;;;;8.43;5.47;;;12.20;97.20;;;;;;5092563;28;20486;-69
2021/11/10 09:09:14;;;;;;;9.82;5.63;;;12.20;97.60;;;;;;5082045;28;20055;-54
2021/11/10 09:11:40;;;;;;;7.35;5.45;;;12.20;99.90;;;;;;5054311;28;20024;-68
2021/11/10 09:14:05;;;;;;;12.40;5.55;;;13.10;99.00;;;;;;5071390;28;20100;-67
2021/11/10 09:16:31;;;;;;;9.15;5.53;;;12.90;97.50;;;;;;5087028;28;20055;-68
2021/11/10 09:18:57;;;;;;;7.30;4.65;;;12.60;97.10;;;;;;5055999;28;20147;-69
2021/11/10 09:21:23;;;;;;;21.38;5.90;;;12.60;96.60;;;;;;5054332;28;20470;-69
2021/11/10 09:23:49;;;;;;;7.78;5.22;;;13.10;96.70;;;;;;5074564;28;20039;-72
2021/11/10 09:26:14;;;;;;;14.38;6.75;;;13.00;95.70;;;;;;5070669;28;20025;-64
2021/11/10 09:28:40;;;;;;;10.35;5.57;;;13.10;97.30;;;;;;5068505;28;20031;-68
2021/11/10 09:31:06;;;;;;;7.43;5.38;;;13.60;95.90;;;;;;5060093;28;20060;-66
2021/11/10 09:33:36;;;;;;;11.77;5.38;;;13.40;95.20;;;;;;5068504;28;20497;-68
2021/11/10 09:36:03;;;;;;;12.05;6.15;;;13.70;94.90;;;;;;5064435;28;20484;-67
2021/11/10 09:38:28;;;;;;;10.68;6.18;;;13.30;95.20;;;;;;5088964;28;20404;-68
2021/11/10 09:40:59;;;;;;;10.18;5.65;;;13.70;94.80;;;;;;5071848;28;20031;-67
2021/11/10 09:43:32;;;;;;;11.23;5.93;;;13.80;94.40;;;;;;5074293;28;20024;-67
2021/11/10 09:45:58;;;;;;;8.10;5.03;;;14.20;94.10;;;;;;5068957;28;20028;-67
2021/11/10 09:48:25;;;;;;;12.50;6.15;;;14.40;93.50;;;;;;5072142;28;20143;-67
2021/11/10 09:50:52;;;;;;;7.70;5.72;;;14.70;93.10;;;;;;5070804;28;20359;-68
2021/11/10 09:53:18;;;;;;;7.82;4.90;;;14.30;92.40;;;;;;5053509;28;20024;-70
2021/11/10 09:55:44;;;;;;;6.97;5.28;;;13.50;94.00;;;;;;5071542;28;20033;-68
2021/11/10 09:58:10;;;;;;;13.48;5.53;;;14.00;94.10;;;;;;5074903;28;20365;-67
2021/11/10 10:00:50;;;;;;;8.35;5.45;;;14.70;92.60;;;;;;5073563;28;20032;-67
2021/11/10 10:03:17;;;;;;;6.50;5.18;;;14.10;93.50;;;;;;5082912;28;20036;-67
2021/11/10 10:05:47;;;;;;;10.63;5.47;;;14.30;93.40;;;;;;5080002;28;20039;-68
2021/11/10 10:08:15;;;;;;;12.05;5.30;;;15.40;91.70;;;;;;5070708;28;20373;-68
2021/11/10 10:10:42;;;;;;;8.98;5.88;;;15.30;91.60;;;;;;5053322;28;20025;-68
2021/11/10 10:13:09;;;;;;;7.07;5.18;;;14.90;91.80;;;;;;5070582;28;20104;-67
2021/11/10 10:15:36;;;;;;;8.07;4.88;;;14.80;91.60;;;;;;5053109;28;20036;-67
2021/11/10 10:18:11;;;;;;;7.75;5.03;;;15.40;91.20;;;;;;5052652;28;20170;-68
2021/11/10 10:20:38;;;;;;;10.27;5.15;;;14.90;91.10;;;;;;5071228;28;20021;-67
2021/11/10 10:23:15;;;;;;;7.47;4.40;;;15.20;91.30;;;;;;5052445;28;20032;-69
2021/11/10 10:25:53;;;;;;;11.23;4.63;;;15.60;90.90;;;;;;5071364;28;20040;-67
2021/11/10 10:28:31;;;;;;;8.60;5.07;;;15.60;90.70;;;;;;5083282;28;20043;-67
2021/11/10 10:31:06;;;;;;;7.85;4.82;;;16.40;88.90;;;;;;5070210;28;20485;-69
2021/11/10 10:33:35;;;;;;;7.63;4.88;;;16.90;87.20;;;;;;5071262;28;20086;-66
2021/11/10 10:36:04;;;;;;;9.73;5.15;;;17.10;84.70;;;;;;5052546;28;20112;-68
2021/11/10 10:38:35;;;;;;;8.45;5.30;;;17.50;83.90;;;;;;5072379;28;20718;-67
2021/11/10 10:41:02;;;;;;;9.30;5.32;;;16.70;84.20;;;;;;5048997;28;20085;-68
2021/11/10 10:43:29;;;;;;;10.40;3.25;;;16.00;86.80;;;;;;5052755;28;20036;-65
2021/11/10 10:45:57;;;;;;;8.95;3.75;;;17.00;99.90;;;;;;5061550;28;20033;-66
2021/11/10 10:48:28;;;;;;;8.27;4.50;;;17.90;99.90;;;;;;5052617;28;20032;-60
2021/11/10 10:50:57;;;;;;;11.27;5.38;;;17.90;99.90;;;;;;5057376;28;20028;-70
2021/11/10 10:53:39;;;;;;;8.98;5.38;;;17.30;88.30;;;;;;5071047;28;20028;-66
2021/11/10 10:56:27;;;;;;;7.53;5.43;;;17.30;84.50;;;;;;5068970;28;20090;-66
2021/11/10 10:59:02;;;;;;;6.65;5.22;;;15.60;88.80;;;;;;5070268;28;20055;-67
2021/11/10 11:01:30;;;;;;;10.18;6.20;;;15.30;88.50;;;;;;5052560;28;20043;-66
2021/11/10 11:04:08;;;;;;;11.80;6.20;;;15.60;86.70;;;;;;5051855;28;20036;-74
2021/11/10 11:07:03;;;;;;;7.85;6.00;;;15.00;89.40;;;;;;5052479;28;20072;-66
2021/11/10 11:09:44;;;;;;;10.30;5.75;;;15.20;88.50;;;;;;5070503;28;20362;-65
2021/11/10 11:12:23;;;;;;;10.18;6.78;;;15.80;88.60;;;;;;5051539;28;20039;-66
2021/11/10 11:14:55;;;;;;;9.00;6.15;;;16.20;85.90;;;;;;5052610;28;20033;-66
2021/11/10 11:17:23;;;;;;;7.35;6.20;;;15.50;87.10;;;;;;5051912;28;20040;-66
2021/11/10 11:19:49;;;;;;;8.68;6.10;;;15.70;87.00;;;;;;5052307;28;20036;-66
2021/11/10 11:22:15;;;;;;;10.57;6.53;;;16.00;87.90;;;;;;5069765;28;20716;-66
2021/11/10 11:24:43;;;;;;;14.93;6.60;;;16.10;86.10;;;;;;5052155;28;20112;-66
2021/11/10 11:27:26;;;;;;;9.10;6.10;;;16.30;85.10;;;;;;5051770;28;20078;-66
2021/11/10 11:30:05;;;;;;;13.23;7.18;;;16.10;85.40;;;;;;5070239;28;20086;-66
2021/11/10 11:32:36;;;;;;;11.75;6.60;;;15.70;86.60;;;;;;5070263;28;20047;-67
2021/11/10 11:35:11;;;;;;;12.45;6.47;;;15.30;87.30;;;;;;5051323;28;20341;-66
2021/11/10 11:37:39;;;;;;;7.65;6.07;;;15.00;87.80;;;;;;5052485;28;20039;-66
2021/11/10 11:40:11;;;;;;;18.63;7.63;;;15.50;88.50;;;;;;5051013;28;20074;-66
2021/11/10 11:42:37;;;;;;;25.50;7.68;;;15.60;86.90;;;;;;5070325;28;20058;-66
2021/11/10 11:45:05;;;;;;;9.52;6.90;;;16.30;86.50;;;;;;5069366;28;20466;-66
2021/11/10 11:47:31;;;;;;;9.15;6.65;;;15.60;87.30;;;;;;5051651;28;20109;-66
2021/11/10 11:50:03;;;;;;;8.43;7.15;;;15.20;88.00;;;;;;5051579;28;20028;-74
2021/11/10 11:52:32;;;;;;;21.15;7.00;;;15.80;86.30;;;;;;5069595;28;20388;-66
2021/11/10 11:55:01;;;;;;;13.52;8.13;;;16.40;84.40;;;;;;5071649;28;20052;-73
2021/11/10 11:57:29;;;;;;;10.48;6.95;;;15.70;85.20;;;;;;5073221;28;20107;-66
2021/11/10 11:59:57;;;;;;;11.77;7.97;;;15.00;86.80;;;;;;5039046;28;20056;-65
2021/11/10 12:02:31;;;;;;;14.38;7.38;;;14.60;88.90;;;;;;5073658;28;20028;-66
2021/11/10 12:04:57;;;;;;;10.55;7.65;;;14.30;88.20;;;;;;5073037;28;20073;-65
2021/11/10 12:07:45;;;;;;;13.13;7.57;;;13.80;90.40;;;;;;5055261;28;20078;-65
2021/11/10 12:10:34;;;;;;;13.45;7.10;;;14.30;90.20;;;;;;5072551;28;20055;-65
2021/11/10 12:13:17;;;;;;;18.25;8.40;;;14.20;90.60;;;;;;5072968;28;20078;-67
2021/11/10 12:16:07;;;;;;;12.27;7.50;;;14.20;90.20;;;;;;5054644;28;20024;-66
2021/11/10 12:18:49;;;;;;;12.70;7.97;;;13.90;90.60;;;;;;5072979;28;20048;-67
2021/11/10 12:21:21;;;;;;;11.98;7.80;;;13.50;91.10;;;;;;5072599;28;20142;-67
2021/11/10 12:23:52;;;;;;;12.55;7.93;;;12.70;92.20;;;;;;5054815;28;20111;-66
2021/11/10 12:26:18;;;;;;;;;;;12.30;93.50;;;;;;5054327;28;20381;-67
2021/11/10 12:28:55;;;;;;;13.15;7.68;;;12.90;93.10;;;;;;5072235;28;20023;-66
2021/11/10 12:31:33;;;;;;;13.18;8.02;;;13.90;92.60;;;;;;5044500;28;20052;-66
2021/11/10 12:34:01;;;;;;;16.65;7.38;;;14.40;91.20;;;;;;5052164;28;20029;-67
2021/11/10 12:36:57;;;;;;;14.25;7.63;;;15.00;90.50;;;;;;5051901;28;20027;-66
2021/11/10 12:39:34;;;;;;;24.42;7.72;;;14.90;89.70;;;;;;5071939;28;20025;-67
2021/11/10 12:42:07;;;;;;;14.48;7.15;;;14.60;90.30;;;;;;5071913;28;20147;-72
2021/11/10 12:44:39;;;;;;;13.05;7.57;;;14.50;90.70;;;;;;5072565;28;20115;-66
2021/11/10 12:47:06;;;;;;;18.13;7.43;;;14.50;90.40;;;;;;5071528;28;20029;-68
2021/11/10 12:49:32;;;;;;;12.10;7.32;;;14.30;90.60;;;;;;5053810;28;20028;-66
2021/11/10 12:52:10;;;;;;;29.92;9.27;;;14.40;91.00;;;;;;5071764;28;20029;-65